CheckWX is a tool to help pilots better visualize weather data.  It is not intended as a substitute for an official pre-flight weather briefing.

16:56:21 UTC

ULPB TAF
Petrozavodsk Airport
Petrozavodsk, Russian Federation
TAF ULPB 181359Z 1815/1824 26004MPS 9999 BKN015 TEMPO 1815/1818 28005G10MPS 3100 -SHRA BKN011 BKN020CB TEMPO 1818/1824 29003MPS 3100 -SHRA BKN011 BKN020CB

Jun-18@
15:00 UTC

Jun-18 @ 15:00 UTC

Jun-19@
00:00 UTC

Jun-19 @ 00:00 UTC

TAF ULPB 181359Z 1815/1824 26004MPS 9999 BKN015
Wind
  • 260° at 8 KTS
Cloud Levels
  • Broken at 1,500' AGL

Jun-18@
15:00 UTC

Jun-18 @ 15:00 UTC

Jun-18@
18:00 UTC

Jun-18 @ 18:00 UTC

TEMPO 1815/1818 28005G10MPS 3100 -SHRA BKN011 BKN020CB

Temporary

Temporary Changes expected for less than half the time period

Wind
  • 280° at 10 KTS
  • {Gusting to 19 KTS
Conditions
Light Rain
Cloud Levels
  • Broken at 1,100' AGL
  • Broken at 2,000' AGL

Jun-18@
18:00 UTC

Jun-18 @ 18:00 UTC

Jun-19@
00:00 UTC

Jun-19 @ 00:00 UTC

TEMPO 1818/1824 29003MPS 3100 -SHRA BKN011 BKN020CB

Temporary

Temporary Changes expected for less than half the time period

Wind
  • 290° at 6 KTS
Conditions
Light Rain
Cloud Levels
  • Broken at 1,100' AGL
  • Broken at 2,000' AGL